Ship Status Report: callsign BAREU51

sailwx.info

Track history (hours):
 
Tides and Currents Weather Stations Pressure Air Temp Water Temp Dewpoint Dewpoint Depression Visibility Wind Speed Wind Dir Waves Ship Positions

Callsign BAREU51 (name unknown)

Last reported at 2018-Apr-26 01:00 UTC. Time now 2018-Apr-26 01:59 UTC.
Position N 39°24' E 012°24'.

Barometer 1015.5 mb
Air temperature 18.4 ° C

Date/timePositionNaut miles runAvg speedWind from/ knotsBaromVisibWave heightAir tempDewpointWater temp
2018-Apr-26 01:00N 39°24' E 012°24'2322.8 1015.5 18.4
2018-Apr-26 00:00N 39°06' E 012°42'2020.3 1015.8 18.3
2018-Apr-25 23:00N 38°48' E 012°54'2322.8 1016.6 18.7
2018-Apr-25 22:00N 38°30' E 013°12'2625.8 1016.8 18.8
2018-Apr-25 21:00N 38°06' E 013°24'0 0.0 1017.4 19.2
2018-Apr-25 20:00N 38°06' E 013°24'0 0.0 1017.6 18.1
2018-Apr-25 17:00N 38°06' E 013°24'2020.3 1016.7 19.9
2018-Apr-25 16:00N 38°24' E 013°12'2625.8 1016.8 19.8
2018-Apr-25 15:00N 38°48' E 013°00'2322.8 1016.8 20.8
2018-Apr-25 14:00N 39°06' E 012°42'2322.8 1017.1 20.6
2018-Apr-25 13:00N 39°24' E 012°24'2020.2 1017.7 20.9
2018-Apr-25 12:00N 39°42' E 012°12'2322.7 1017.9 20.7
2018-Apr-25 11:00N 40°00' E 011°54'2827.7 1018.1 20.5
2018-Apr-25 10:00N 40°24' E 011°36'2020.2 1018.4 20.1
2018-Apr-25 09:00N 40°42' E 011°24'2322.6 1018.6 19.7
2018-Apr-25 08:00N 41°00' E 011°06'2322.5 1018.0 19.4
2018-Apr-25 07:00N 41°18' E 010°48'2222.5 1017.5 18.9
2018-Apr-25 06:00N 41°36' E 010°30'2625.6 1017.3 18.3
2018-Apr-25 05:00N 42°00' E 010°18'2222.4 1016.5 17.8
2018-Apr-25 04:00N 42°18' E 010°00'2020.1 1016.5 17.6
2018-Apr-25 03:00N 42°36' E 009°48'2625.6 1016.5 17.5
2018-Apr-25 02:00N 43°00' E 009°36'2020.0 1016.4 17.6
2018-Apr-25 01:00N 43°18' E 009°24'2424.4 1017.0 17.3
2018-Apr-25 00:00N 43°42' E 009°18'2020.0 1017.4 17.3
2018-Apr-24 23:00N 44°00' E 009°06'2424.4 1017.9 17.1
2018-Apr-24 22:00N 44°24' E 009°00'4 0.7 1018.3 16.2
2018-Apr-24 16:00N 44°24' E 008°54'2019.9 1018.1 19.3
2018-Apr-24 15:00N 44°06' E 009°06'2625.5 1018.0 19.4
2018-Apr-24 14:00N 43°42' E 009°18'2625.5 1018.4 20.4
2018-Apr-24 13:00N 43°18' E 009°30'2020.0 1018.9 20.5
2018-Apr-24 12:00N 43°00' E 009°42'2424.4 1019.1 20.4
2018-Apr-24 11:00N 42°36' E 009°48'2625.6 1018.9 20.2
2018-Apr-24 10:00N 42°12' E 010°00'2222.4 1019.0 19.2
2018-Apr-24 09:00N 41°54' E 010°18'2222.5 1019.0 19.3
2018-Apr-24 08:00N 41°36' E 010°36'2222.5 1019.3 19.9
2018-Apr-24 07:00N 41°18' E 010°54'2020.1 1019.2 19.2
2018-Apr-24 06:00N 41°00' E 011°06'2827.6 1019.0 18.6
2018-Apr-24 05:00N 40°36' E 011°24'2322.6 1018.5 17.8
2018-Apr-24 04:00N 40°18' E 011°42'2020.2 1018.4 17.6
2018-Apr-24 03:00N 40°00' E 011°54'2322.7 1018.6 18.1
2018-Apr-24 02:00N 39°42' E 012°12'2827.7 1018.7 17.6
2018-Apr-24 01:00N 39°18' E 012°30'2322.8 1018.8 17.9
2018-Apr-24 00:00N 39°00' E 012°48'2020.3 1019.0 18.1
2018-Apr-23 23:00N 38°42' E 013°00'2322.9 1019.0 18.3
2018-Apr-23 22:00N 38°24' E 013°18'19 4.7 1019.3 19.0
2018-Apr-23 18:00N 38°06' E 013°24'0 0.0 1019.3 19.2
2018-Apr-22 17:00N 38°06' E 013°24'1918.6 1018.7 20.1
2018-Apr-22 16:00N 38°24' E 013°18'2322.9 1018.5 20.9
2018-Apr-22 15:00N 38°42' E 013°00'2827.8 1018.5 20.9
2018-Apr-22 14:00N 39°06' E 012°42'2020.3 1018.5 20.3
2018-Apr-22 13:00N 39°24' E 012°30'2322.7 1018.6 20.8
2018-Apr-22 12:00N 39°42' E 012°12'2322.7 1019.0 20.5
2018-Apr-22 11:00N 40°00' E 011°54'2020.2 1019.1 20.2
2018-Apr-22 10:00N 40°18' E 011°42'2322.6 1019.2 20.0
2018-Apr-22 09:00N 40°36' E 011°24'2827.6 1019.3 19.5
2018-Apr-22 08:00N 41°00' E 011°06'2020.1 1018.5 18.7
2018-Apr-22 07:00N 41°18' E 010°54'2222.5 1017.7 17.8
2018-Apr-22 06:00N 41°36' E 010°36'2222.5 1017.4 17.9
2018-Apr-22 05:00N 41°54' E 010°18'2727.5 1017.2 16.6
2018-Apr-22 04:00N 42°18' E 010°00'2020.1 1017.0 16.9
2018-Apr-22 03:00N 42°36' E 009°48'2625.6 1016.8 17.4
2018-Apr-22 02:00N 43°00' E 009°36'1918.5 1017.1 17.5
2018-Apr-22 01:00N 43°18' E 009°30'2625.5 1016.8 17.2
2018-Apr-22 00:00N 43°42' E 009°18'2020.0 1016.9 17.7
2018-Apr-21 23:00N 44°00' E 009°06'2424.4 1016.7 18.6
2018-Apr-21 22:00N 44°24' E 009°00'4 1.4 1017.5 19.8
2018-Apr-21 19:00N 44°24' E 008°54'0 0.0 1017.6 21.6
2018-Apr-21 17:00N 44°24' E 008°54'7 7.4 1017.5 22.9
2018-Apr-21 16:00N 44°18' E 009°00'2625.5 1017.1 22.3
2018-Apr-21 15:00N 43°54' E 009°12'2020.0 1017.0 21.1
2018-Apr-21 14:00N 43°36' E 009°24'2625.5 1017.7 22.3
2018-Apr-21 13:00N 43°12' E 009°36'1918.5 1018.2 20.6
2018-Apr-21 12:00N 42°54' E 009°42'2625.6 1018.1 20.1
2018-Apr-21 11:00N 42°30' E 009°54'2020.1 1018.5 20.0
2018-Apr-21 10:00N 42°12' E 010°06'2727.5 1019.0 19.8
2018-Apr-21 09:00N 41°48' E 010°24'2222.5 1018.9 19.4
2018-Apr-21 08:00N 41°30' E 010°42'2020.1 1018.5 18.4
2018-Apr-21 07:00N 41°12' E 010°54'2322.5 1018.1 17.9
2018-Apr-21 06:00N 40°54' E 011°12'2322.6 1018.1 17.4
2018-Apr-21 05:00N 40°36' E 011°30'2020.2 1018.3 17.0
2018-Apr-21 04:00N 40°18' E 011°42'2827.7 1018.1 16.5
2018-Apr-21 03:00N 39°54' E 012°00'2322.7 1017.9 16.7
2018-Apr-21 02:00N 39°36' E 012°18'2020.2 1018.1 16.7
2018-Apr-21 01:00N 39°18' E 012°30'2322.8 1018.4 16.8
2018-Apr-21 00:00N 39°00' E 012°48'2827.8 1019.1 17.0
2018-Apr-20 23:00N 38°36' E 013°06'2020.3 1019.5 17.0
2018-Apr-20 22:00N 38°18' E 013°18'13 2.6 1019.5 17.7
2018-Apr-20 17:00N 38°06' E 013°24'1918.6 1019.4 18.4
2018-Apr-20 16:00N 38°24' E 013°18'3030.5 1018.8 19.3
2018-Apr-20 15:00N 38°48' E 012°54'2020.3 1019.2 20.0
2018-Apr-20 14:00N 39°06' E 012°42'2322.8 1019.9 20.0
2018-Apr-20 13:00N 39°24' E 012°24'2827.7 1020.5 20.6
2018-Apr-20 12:00N 39°48' E 012°06'2020.2 1021.0 20.8
2018-Apr-20 11:00N 40°06' E 011°54'2322.6 1021.3 20.5
2018-Apr-20 10:00N 40°24' E 011°36'2322.6 1021.5 19.9
2018-Apr-20 09:00N 40°42' E 011°18'2827.6 1021.6 18.9
2018-Apr-20 08:00N 41°06' E 011°00'2020.1 1021.4 18.3
2018-Apr-20 07:00N 41°24' E 010°48'2222.5 1021.5 18.1
2018-Apr-20 06:00N 41°42' E 010°30'2222.4 1021.5 17.4
2018-Apr-20 05:00N 42°00' E 010°12'2727.5 1021.9 16.7
2018-Apr-20 04:00N 42°24' E 009°54'2020.1 1022.1 17.1
2018-Apr-20 03:00N 42°42' E 009°42'2424.4 1022.5 17.6
2018-Apr-20 02:00N 43°06' E 009°36'2020.0 1022.6 17.9
2018-Apr-20 01:00N 43°24' E 009°24'2625.5 1022.9 17.4
2018-Apr-20 00:00N 43°48' E 009°12'2020.0 1023.5 17.7
2018-Apr-19 23:00N 44°06' E 009°00'19 3.1 1024.0 18.2
2018-Apr-19 17:00N 44°24' E 008°54'1514.8 1024.5 20.2
2018-Apr-19 16:00N 44°12' E 009°06'2625.5 1024.0 18.6
2018-Apr-19 15:00N 43°48' E 009°18'1918.5 1024.3 20.9
2018-Apr-19 14:00N 43°30' E 009°24'2625.5 1024.4 19.9
2018-Apr-19 13:00N 43°06' E 009°36'2625.6 1025.2 20.3
2018-Apr-19 12:00N 42°42' E 009°48'1918.5 1025.3 19.2
2018-Apr-19 11:00N 42°24' E 009°54'2727.5 1025.3 19.1
2018-Apr-19 10:00N 42°00' E 010°12'2222.4 1025.2 18.2
2018-Apr-19 09:00N 41°42' E 010°30'2222.5 1024.9 18.3
2018-Apr-19 08:00N 41°24' E 010°48'2020.1 1024.7 18.2
2018-Apr-19 07:00N 41°06' E 011°00'2827.6 1024.0 18.7
2018-Apr-19 06:00N 40°42' E 011°18'2322.6 1023.6 17.8
2018-Apr-19 05:00N 40°24' E 011°36'2020.2 1022.9 17.1
2018-Apr-19 04:00N 40°06' E 011°48'2322.7 1022.3 17.0
2018-Apr-19 03:00N 39°48' E 012°06'2322.7 1022.1 16.5
2018-Apr-19 02:00N 39°30' E 012°24'2625.7 1022.4 16.2
2018-Apr-19 01:00N 39°06' E 012°36'2322.8 1023.0 16.2
2018-Apr-19 00:00N 38°48' E 012°54'2322.8 1023.1 16.3
2018-Apr-18 23:00N 38°30' E 013°12'2020.3 1023.5 16.3
2018-Apr-18 22:00N 38°12' E 013°24'6 1.2 1023.4 16.1
2018-Apr-18 17:00N 38°06' E 013°24'1918.6 1022.0 17.6
2018-Apr-18 16:00N 38°24' E 013°18'2322.9 1021.8 16.8
2018-Apr-18 15:00N 38°42' E 013°00'2020.3 1021.7 18.1
2018-Apr-18 14:00N 39°00' E 012°48'2322.8 1022.1 18.6
2018-Apr-18 13:00N 39°18' E 012°30'2322.7 1022.1 18.8
2018-Apr-18 12:00N 39°36' E 012°12'2020.2 1022.3 18.8
2018-Apr-18 11:00N 39°54' E 012°00'2827.7 1022.7 18.5
2018-Apr-18 10:00N 40°18' E 011°42'2322.6 1023.2 18.4
2018-Apr-18 09:00N 40°36' E 011°24'2322.6 1023.3 18.2
2018-Apr-18 08:00N 40°54' E 011°06'2625.6 1023.0 17.6
2018-Apr-18 07:00N 41°18' E 010°54'2222.5 1022.8 17.2
2018-Apr-18 06:00N 41°36' E 010°36'2222.5 1022.8 16.9
2018-Apr-18 05:00N 41°54' E 010°18'2020.1 1022.5 16.3
2018-Apr-18 04:00N 42°12' E 010°06'2727.4 1022.5 17.2
2018-Apr-18 03:00N 42°36' E 009°48'2020.0 1023.6 16.6
2018-Apr-18 02:00N 42°54' E 009°36'2424.4 1024.0 15.7
2018-Apr-18 01:00N 43°18' E 009°30'2020.0 1024.1 16.1
2018-Apr-18 00:00N 43°36' E 009°18'2625.5 1024.0 16.1
2018-Apr-17 23:00N 44°00' E 009°06'1918.5 1023.9 17.1
2018-Apr-17 22:00N 44°18' E 009°00'7 1.5 1023.7 18.5
2018-Apr-17 17:00N 44°24' E 008°54'7 7.4 1021.0 17.3
2018-Apr-17 16:00N 44°18' E 009°00'2222.2 1020.2 16.2
2018-Apr-17 15:00N 44°00' E 009°18'2727.3 1019.7 16.5
2018-Apr-17 14:00N 43°36' E 009°36'2020.0 1019.7 16.8
2018-Apr-17 13:00N 43°18' E 009°48'2625.5 1019.6 16.6
2018-Apr-17 12:00N 42°54' E 010°00'2020.0 1019.9 17.0
2018-Apr-17 11:00N 42°36' E 010°12'2525.3 1019.8 18.3
2018-Apr-17 10:00N 42°18' E 010°36'2020.1 1020.0 17.4
2018-Apr-17 09:00N 42°00' E 010°48'2625.6 1018.9 17.3
2018-Apr-17 08:00N 41°36' E 011°00'2222.5 1018.4 16.3
2018-Apr-17 07:00N 41°18' E 011°18'2020.1 1017.2 16.5
2018-Apr-17 06:00N 41°00' E 011°30'2625.7 1016.3 15.9
2018-Apr-17 05:00N 40°36' E 011°42'2322.6 1016.3 15.7
2018-Apr-17 04:00N 40°18' E 012°00'2020.2 1016.9 15.4
2018-Apr-17 03:00N 40°00' E 012°12'2625.7 1016.4 15.7
2018-Apr-17 02:00N 39°36' E 012°24'2322.7 1016.4 15.7
2018-Apr-17 01:00N 39°18' E 012°42'2625.7 1016.3 15.5
2018-Apr-17 00:00N 38°54' E 012°54'2020.3 1016.7 15.6
2018-Apr-16 23:00N 38°36' E 013°06'2322.9 1016.7 16.0
2018-Apr-16 22:00N 38°18' E 013°24'12 1.7 1016.6 16.4
2018-Apr-16 15:00N 38°06' E 013°24'   1014.1 20.9
Track history (hours):
 
Tides and Currents Weather Stations Pressure Air Temp Water Temp Dewpoint Dewpoint Depression Visibility Wind Speed Wind Dir Waves Ship Positions

Callsign BAREU51 (name unknown)

Last reported at 2018-Apr-26 01:00 UTC. Time now 2018-Apr-26 01:59 UTC.
Position N 39°24' E 012°24'.

Barometer 1015.5 mb
Air temperature 18.4 ° C

Date/timePositionNaut miles runAvg speedWind from/ knotsBaromVisibWave heightAir tempDewpointWater temp
2018-Apr-26 01:00N 39°24' E 012°24'2322.8 1015.5 18.4
2018-Apr-26 00:00N 39°06' E 012°42'2020.3 1015.8 18.3
2018-Apr-25 23:00N 38°48' E 012°54'2322.8 1016.6 18.7
2018-Apr-25 22:00N 38°30' E 013°12'2625.8 1016.8 18.8
2018-Apr-25 21:00N 38°06' E 013°24'0 0.0 1017.4 19.2
2018-Apr-25 20:00N 38°06' E 013°24'0 0.0 1017.6 18.1
2018-Apr-25 17:00N 38°06' E 013°24'2020.3 1016.7 19.9
2018-Apr-25 16:00N 38°24' E 013°12'2625.8 1016.8 19.8
2018-Apr-25 15:00N 38°48' E 013°00'2322.8 1016.8 20.8
2018-Apr-25 14:00N 39°06' E 012°42'2322.8 1017.1 20.6
2018-Apr-25 13:00N 39°24' E 012°24'2020.2 1017.7 20.9
2018-Apr-25 12:00N 39°42' E 012°12'2322.7 1017.9 20.7
2018-Apr-25 11:00N 40°00' E 011°54'2827.7 1018.1 20.5
2018-Apr-25 10:00N 40°24' E 011°36'2020.2 1018.4 20.1
2018-Apr-25 09:00N 40°42' E 011°24'2322.6 1018.6 19.7
2018-Apr-25 08:00N 41°00' E 011°06'2322.5 1018.0 19.4
2018-Apr-25 07:00N 41°18' E 010°48'2222.5 1017.5 18.9
2018-Apr-25 06:00N 41°36' E 010°30'2625.6 1017.3 18.3
2018-Apr-25 05:00N 42°00' E 010°18'2222.4 1016.5 17.8
2018-Apr-25 04:00N 42°18' E 010°00'2020.1 1016.5 17.6
2018-Apr-25 03:00N 42°36' E 009°48'2625.6 1016.5 17.5
2018-Apr-25 02:00N 43°00' E 009°36'2020.0 1016.4 17.6
2018-Apr-25 01:00N 43°18' E 009°24'2424.4 1017.0 17.3
2018-Apr-25 00:00N 43°42' E 009°18'2020.0 1017.4 17.3
2018-Apr-24 23:00N 44°00' E 009°06'2424.4 1017.9 17.1
2018-Apr-24 22:00N 44°24' E 009°00'4 0.7 1018.3 16.2
2018-Apr-24 16:00N 44°24' E 008°54'2019.9 1018.1 19.3
2018-Apr-24 15:00N 44°06' E 009°06'2625.5 1018.0 19.4
2018-Apr-24 14:00N 43°42' E 009°18'2625.5 1018.4 20.4
2018-Apr-24 13:00N 43°18' E 009°30'2020.0 1018.9 20.5
2018-Apr-24 12:00N 43°00' E 009°42'2424.4 1019.1 20.4
2018-Apr-24 11:00N 42°36' E 009°48'2625.6 1018.9 20.2
2018-Apr-24 10:00N 42°12' E 010°00'2222.4 1019.0 19.2
2018-Apr-24 09:00N 41°54' E 010°18'2222.5 1019.0 19.3
2018-Apr-24 08:00N 41°36' E 010°36'2222.5 1019.3 19.9
2018-Apr-24 07:00N 41°18' E 010°54'2020.1 1019.2 19.2
2018-Apr-24 06:00N 41°00' E 011°06'2827.6 1019.0 18.6
2018-Apr-24 05:00N 40°36' E 011°24'2322.6 1018.5 17.8
2018-Apr-24 04:00N 40°18' E 011°42'2020.2 1018.4 17.6
2018-Apr-24 03:00N 40°00' E 011°54'2322.7 1018.6 18.1
2018-Apr-24 02:00N 39°42' E 012°12'2827.7 1018.7 17.6
2018-Apr-24 01:00N 39°18' E 012°30'2322.8 1018.8 17.9
2018-Apr-24 00:00N 39°00' E 012°48'2020.3 1019.0 18.1
2018-Apr-23 23:00N 38°42' E 013°00'2322.9 1019.0 18.3
2018-Apr-23 22:00N 38°24' E 013°18'19 4.7 1019.3 19.0
2018-Apr-23 18:00N 38°06' E 013°24'0 0.0 1019.3 19.2
2018-Apr-22 17:00N 38°06' E 013°24'1918.6 1018.7 20.1
2018-Apr-22 16:00N 38°24' E 013°18'2322.9 1018.5 20.9
2018-Apr-22 15:00N 38°42' E 013°00'2827.8 1018.5 20.9
2018-Apr-22 14:00N 39°06' E 012°42'2020.3 1018.5 20.3
2018-Apr-22 13:00N 39°24' E 012°30'2322.7 1018.6 20.8
2018-Apr-22 12:00N 39°42' E 012°12'2322.7 1019.0 20.5
2018-Apr-22 11:00N 40°00' E 011°54'2020.2 1019.1 20.2
2018-Apr-22 10:00N 40°18' E 011°42'2322.6 1019.2 20.0
2018-Apr-22 09:00N 40°36' E 011°24'2827.6 1019.3 19.5
2018-Apr-22 08:00N 41°00' E 011°06'2020.1 1018.5 18.7
2018-Apr-22 07:00N 41°18' E 010°54'2222.5 1017.7 17.8
2018-Apr-22 06:00N 41°36' E 010°36'2222.5 1017.4 17.9
2018-Apr-22 05:00N 41°54' E 010°18'2727.5 1017.2 16.6
2018-Apr-22 04:00N 42°18' E 010°00'2020.1 1017.0 16.9
2018-Apr-22 03:00N 42°36' E 009°48'2625.6 1016.8 17.4
2018-Apr-22 02:00N 43°00' E 009°36'1918.5 1017.1 17.5
2018-Apr-22 01:00N 43°18' E 009°30'2625.5 1016.8 17.2
2018-Apr-22 00:00N 43°42' E 009°18'2020.0 1016.9 17.7
2018-Apr-21 23:00N 44°00' E 009°06'2424.4 1016.7 18.6
2018-Apr-21 22:00N 44°24' E 009°00'4 1.4 1017.5 19.8
2018-Apr-21 19:00N 44°24' E 008°54'0 0.0 1017.6 21.6
2018-Apr-21 17:00N 44°24' E 008°54'7 7.4 1017.5 22.9
2018-Apr-21 16:00N 44°18' E 009°00'2625.5 1017.1 22.3
2018-Apr-21 15:00N 43°54' E 009°12'2020.0 1017.0 21.1
2018-Apr-21 14:00N 43°36' E 009°24'2625.5 1017.7 22.3
2018-Apr-21 13:00N 43°12' E 009°36'1918.5 1018.2 20.6
2018-Apr-21 12:00N 42°54' E 009°42'2625.6 1018.1 20.1
2018-Apr-21 11:00N 42°30' E 009°54'2020.1 1018.5 20.0
2018-Apr-21 10:00N 42°12' E 010°06'2727.5 1019.0 19.8
2018-Apr-21 09:00N 41°48' E 010°24'2222.5 1018.9 19.4
2018-Apr-21 08:00N 41°30' E 010°42'2020.1 1018.5 18.4
2018-Apr-21 07:00N 41°12' E 010°54'2322.5 1018.1 17.9
2018-Apr-21 06:00N 40°54' E 011°12'2322.6 1018.1 17.4
2018-Apr-21 05:00N 40°36' E 011°30'2020.2 1018.3 17.0
2018-Apr-21 04:00N 40°18' E 011°42'2827.7 1018.1 16.5
2018-Apr-21 03:00N 39°54' E 012°00'2322.7 1017.9 16.7
2018-Apr-21 02:00N 39°36' E 012°18'2020.2 1018.1 16.7
2018-Apr-21 01:00N 39°18' E 012°30'2322.8 1018.4 16.8
2018-Apr-21 00:00N 39°00' E 012°48'2827.8 1019.1 17.0
2018-Apr-20 23:00N 38°36' E 013°06'2020.3 1019.5 17.0
2018-Apr-20 22:00N 38°18' E 013°18'13 2.6 1019.5 17.7
2018-Apr-20 17:00N 38°06' E 013°24'1918.6 1019.4 18.4
2018-Apr-20 16:00N 38°24' E 013°18'3030.5 1018.8 19.3
2018-Apr-20 15:00N 38°48' E 012°54'2020.3 1019.2 20.0
2018-Apr-20 14:00N 39°06' E 012°42'2322.8 1019.9 20.0
2018-Apr-20 13:00N 39°24' E 012°24'2827.7 1020.5 20.6
2018-Apr-20 12:00N 39°48' E 012°06'2020.2 1021.0 20.8
2018-Apr-20 11:00N 40°06' E 011°54'2322.6 1021.3 20.5
2018-Apr-20 10:00N 40°24' E 011°36'2322.6 1021.5 19.9
2018-Apr-20 09:00N 40°42' E 011°18'2827.6 1021.6 18.9
2018-Apr-20 08:00N 41°06' E 011°00'2020.1 1021.4 18.3
2018-Apr-20 07:00N 41°24' E 010°48'2222.5 1021.5 18.1
2018-Apr-20 06:00N 41°42' E 010°30'2222.4 1021.5 17.4
2018-Apr-20 05:00N 42°00' E 010°12'2727.5 1021.9 16.7
2018-Apr-20 04:00N 42°24' E 009°54'2020.1 1022.1 17.1
2018-Apr-20 03:00N 42°42' E 009°42'2424.4 1022.5 17.6
2018-Apr-20 02:00N 43°06' E 009°36'2020.0 1022.6 17.9
2018-Apr-20 01:00N 43°24' E 009°24'2625.5 1022.9 17.4
2018-Apr-20 00:00N 43°48' E 009°12'2020.0 1023.5 17.7
2018-Apr-19 23:00N 44°06' E 009°00'19 3.1 1024.0 18.2
2018-Apr-19 17:00N 44°24' E 008°54'1514.8 1024.5 20.2
2018-Apr-19 16:00N 44°12' E 009°06'2625.5 1024.0 18.6
2018-Apr-19 15:00N 43°48' E 009°18'1918.5 1024.3 20.9
2018-Apr-19 14:00N 43°30' E 009°24'2625.5 1024.4 19.9
2018-Apr-19 13:00N 43°06' E 009°36'2625.6 1025.2 20.3
2018-Apr-19 12:00N 42°42' E 009°48'1918.5 1025.3 19.2
2018-Apr-19 11:00N 42°24' E 009°54'2727.5 1025.3 19.1
2018-Apr-19 10:00N 42°00' E 010°12'2222.4 1025.2 18.2
2018-Apr-19 09:00N 41°42' E 010°30'2222.5 1024.9 18.3
2018-Apr-19 08:00N 41°24' E 010°48'2020.1 1024.7 18.2
2018-Apr-19 07:00N 41°06' E 011°00'2827.6 1024.0 18.7
2018-Apr-19 06:00N 40°42' E 011°18'2322.6 1023.6 17.8
2018-Apr-19 05:00N 40°24' E 011°36'2020.2 1022.9 17.1
2018-Apr-19 04:00N 40°06' E 011°48'2322.7 1022.3 17.0
2018-Apr-19 03:00N 39°48' E 012°06'2322.7 1022.1 16.5
2018-Apr-19 02:00N 39°30' E 012°24'2625.7 1022.4 16.2
2018-Apr-19 01:00N 39°06' E 012°36'2322.8 1023.0 16.2
2018-Apr-19 00:00N 38°48' E 012°54'2322.8 1023.1 16.3
2018-Apr-18 23:00N 38°30' E 013°12'2020.3 1023.5 16.3
2018-Apr-18 22:00N 38°12' E 013°24'6 1.2 1023.4 16.1
2018-Apr-18 17:00N 38°06' E 013°24'1918.6 1022.0 17.6
2018-Apr-18 16:00N 38°24' E 013°18'2322.9 1021.8 16.8
2018-Apr-18 15:00N 38°42' E 013°00'2020.3 1021.7 18.1
2018-Apr-18 14:00N 39°00' E 012°48'2322.8 1022.1 18.6
2018-Apr-18 13:00N 39°18' E 012°30'2322.7 1022.1 18.8
2018-Apr-18 12:00N 39°36' E 012°12'2020.2 1022.3 18.8
2018-Apr-18 11:00N 39°54' E 012°00'2827.7 1022.7 18.5
2018-Apr-18 10:00N 40°18' E 011°42'2322.6 1023.2 18.4
2018-Apr-18 09:00N 40°36' E 011°24'2322.6 1023.3 18.2
2018-Apr-18 08:00N 40°54' E 011°06'2625.6 1023.0 17.6
2018-Apr-18 07:00N 41°18' E 010°54'2222.5 1022.8 17.2
2018-Apr-18 06:00N 41°36' E 010°36'2222.5 1022.8 16.9
2018-Apr-18 05:00N 41°54' E 010°18'2020.1 1022.5 16.3
2018-Apr-18 04:00N 42°12' E 010°06'2727.4 1022.5 17.2
2018-Apr-18 03:00N 42°36' E 009°48'2020.0 1023.6 16.6
2018-Apr-18 02:00N 42°54' E 009°36'2424.4 1024.0 15.7
2018-Apr-18 01:00N 43°18' E 009°30'2020.0 1024.1 16.1
2018-Apr-18 00:00N 43°36' E 009°18'2625.5 1024.0 16.1
2018-Apr-17 23:00N 44°00' E 009°06'1918.5 1023.9 17.1
2018-Apr-17 22:00N 44°18' E 009°00'7 1.5 1023.7 18.5
2018-Apr-17 17:00N 44°24' E 008°54'7 7.4 1021.0 17.3
2018-Apr-17 16:00N 44°18' E 009°00'2222.2 1020.2 16.2
2018-Apr-17 15:00N 44°00' E 009°18'2727.3 1019.7 16.5
2018-Apr-17 14:00N 43°36' E 009°36'2020.0 1019.7 16.8
2018-Apr-17 13:00N 43°18' E 009°48'2625.5 1019.6 16.6
2018-Apr-17 12:00N 42°54' E 010°00'2020.0 1019.9 17.0
2018-Apr-17 11:00N 42°36' E 010°12'2525.3 1019.8 18.3
2018-Apr-17 10:00N 42°18' E 010°36'2020.1 1020.0 17.4
2018-Apr-17 09:00N 42°00' E 010°48'2625.6 1018.9 17.3
2018-Apr-17 08:00N 41°36' E 011°00'2222.5 1018.4 16.3
2018-Apr-17 07:00N 41°18' E 011°18'2020.1 1017.2 16.5
2018-Apr-17 06:00N 41°00' E 011°30'2625.7 1016.3 15.9
2018-Apr-17 05:00N 40°36' E 011°42'2322.6 1016.3 15.7
2018-Apr-17 04:00N 40°18' E 012°00'2020.2 1016.9 15.4
2018-Apr-17 03:00N 40°00' E 012°12'2625.7 1016.4 15.7
2018-Apr-17 02:00N 39°36' E 012°24'2322.7 1016.4 15.7
2018-Apr-17 01:00N 39°18' E 012°42'2625.7 1016.3 15.5
2018-Apr-17 00:00N 38°54' E 012°54'2020.3 1016.7 15.6
2018-Apr-16 23:00N 38°36' E 013°06'2322.9 1016.7 16.0
2018-Apr-16 22:00N 38°18' E 013°24'12 1.7 1016.6 16.4
2018-Apr-16 15:00N 38°06' E 013°24'   1014.1 20.9

Dump ship's entire track history